sensor_id;sensor_type;location;lat;lon;timestamp;pressure;altitude;pressure_sealevel;temperature;humidity
22775;BME280;11554;51.106;3.684;2023-03-03T00:00:01;102402.28;;;1.63;100.0
22775;BME280;11554;51.106;3.684;2023-03-03T00:05:00;102406.32;;;1.69;100.0
22775;BME280;11554;51.106;3.684;2023-03-03T00:10:00;102411.55000000002;;;1.70;100.0
22775;BME280;11554;51.106;3.684;2023-03-03T00:15:00;102420.91;;;1.66;100.0
22775;BME280;11554;51.106;3.684;2023-03-03T00:20:00;102422.29999999999;;;1.60;100.0
22775;BME280;11554;51.106;3.684;2023-03-03T00:25:00;102426.06000000001;;;1.49;100.0
22775;BME280;11554;51.106;3.684;2023-03-03T00:30:00;102425.04;;;1.54;100.0
22775;BME280;11554;51.106;3.684;2023-03-03T00:35:01;102424.29999999999;;;1.45;100.0
22775;BME280;11554;51.106;3.684;2023-03-03T00:40:04;102430.22;;;1.40;100.0
22775;BME280;11554;51.106;3.684;2023-03-03T00:45:00;102430.25;;;1.28;100.0
22775;BME280;11554;51.106;3.684;2023-03-03T00:55:00;102426.66999999998;;;1.12;100.0
22775;BME280;11554;51.106;3.684;2023-03-03T01:00:00;102426.59000000001;;;1.02;100.0
22775;BME280;11554;51.106;3.684;2023-03-03T01:05:00;102431.25;;;0.99;100.0
22775;BME280;11554;51.106;3.684;2023-03-03T01:10:00;102433.65;;;0.96;100.0
22775;BME280;11554;51.106;3.684;2023-03-03T01:15:00;102434.95;;;0.99;100.0
22775;BME280;11554;51.106;3.684;2023-03-03T01:20:00;102434.58;;;0.99;100.0
22775;BME280;11554;51.106;3.684;2023-03-03T01:25:00;102431.32;;;0.94;100.0
22775;BME280;11554;51.106;3.684;2023-03-03T01:30:00;102431.86;;;0.86;100.0
22775;BME280;11554;51.106;3.684;2023-03-03T01:35:00;102433.75000000001;;;0.75;100.0
22775;BME280;11554;51.106;3.684;2023-03-03T01:40:00;102435.77;;;0.77;100.0
22775;BME280;11554;51.106;3.684;2023-03-03T01:50:01;102437.11;;;0.77;100.0
22775;BME280;11554;51.106;3.684;2023-03-03T01:55:00;102432.95000000001;;;0.71;100.0
22775;BME280;11554;51.106;3.684;2023-03-03T02:00:00;102424.84999999999;;;0.75;100.0
22775;BME280;11554;51.106;3.684;2023-03-03T02:05:00;102425.39;;;0.75;100.0
22775;BME280;11554;51.106;3.684;2023-03-03T02:10:03;102433.0;;;0.62;100.0
22775;BME280;11554;51.106;3.684;2023-03-03T02:15:00;102429.98;;;0.40;100.0
22775;BME280;11554;51.106;3.684;2023-03-03T02:20:00;102423.61000000002;;;0.15;100.0
22775;BME280;11554;51.106;3.684;2023-03-03T02:25:01;102429.72;;;-0.15;100.0
22775;BME280;11554;51.106;3.684;2023-03-03T02:30:07;102436.25;;;-0.34;100.0
22775;BME280;11554;51.106;3.684;2023-03-03T02:35:00;102434.94;;;-0.30;100.0
22775;BME280;11554;51.106;3.684;2023-03-03T02:40:00;102437.77;;;-0.33;100.0
22775;BME280;11554;51.106;3.684;2023-03-03T02:45:00;102443.32999999999;;;-0.34;100.0
22775;BME280;11554;51.106;3.684;2023-03-03T02:50:00;102438.57;;;-0.36;100.0
22775;BME280;11554;51.106;3.684;2023-03-03T02:55:00;102436.72999999998;;;-0.39;100.0
22775;BME280;11554;51.106;3.684;2023-03-03T03:00:00;102434.23;;;-0.56;100.0
22775;BME280;11554;51.106;3.684;2023-03-03T03:05:00;102437.12000000001;;;-0.66;100.0
22775;BME280;11554;51.106;3.684;2023-03-03T03:10:00;102439.73000000001;;;-0.73;100.0
22775;BME280;11554;51.106;3.684;2023-03-03T03:15:00;102439.98999999999;;;-0.79;100.0
22775;BME280;11554;51.106;3.684;2023-03-03T03:20:00;102440.84;;;-0.86;100.0
22775;BME280;11554;51.106;3.684;2023-03-03T03:25:00;102449.49999999999;;;-0.95;100.0
22775;BME280;11554;51.106;3.684;2023-03-03T03:30:00;102453.17;;;-0.93;100.0
22775;BME280;11554;51.106;3.684;2023-03-03T03:35:00;102440.22;;;-0.98;100.0
22775;BME280;11554;51.106;3.684;2023-03-03T03:40:00;102446.77999999998;;;-1.07;100.0
22775;BME280;11554;51.106;3.684;2023-03-03T03:45:00;102444.84999999999;;;-1.17;100.0
22775;BME280;11554;51.106;3.684;2023-03-03T03:50:00;102441.46;;;-1.25;100.0
22775;BME280;11554;51.106;3.684;2023-03-03T03:55:00;102445.25000000001;;;-1.39;100.0
22775;BME280;11554;51.106;3.684;2023-03-03T04:00:00;102449.01;;;-1.42;100.0
22775;BME280;11554;51.106;3.684;2023-03-03T04:05:00;102448.68;;;-1.48;100.0
22775;BME280;11554;51.106;3.684;2023-03-03T04:10:00;102446.95999999999;;;-1.57;100.0
22775;BME280;11554;51.106;3.684;2023-03-03T04:15:00;102443.86;;;-1.53;100.0
22775;BME280;11554;51.106;3.684;2023-03-03T04:20:00;102451.12;;;-1.58;100.0
22775;BME280;11554;51.106;3.684;2023-03-03T04:25:00;102452.77;;;-1.54;100.0
22775;BME280;11554;51.106;3.684;2023-03-03T04:30:00;102451.11;;;-1.68;100.0
22775;BME280;11554;51.106;3.684;2023-03-03T04:35:00;102450.84999999999;;;-1.72;100.0
22775;BME280;11554;51.106;3.684;2023-03-03T04:40:00;102451.75;;;-1.50;100.0
22775;BME280;11554;51.106;3.684;2023-03-03T04:45:00;102454.88;;;-1.61;100.0
22775;BME280;11554;51.106;3.684;2023-03-03T04:50:00;102452.89;;;-1.52;100.0
22775;BME280;11554;51.106;3.684;2023-03-03T04:55:00;102452.29;;;-1.34;100.0
22775;BME280;11554;51.106;3.684;2023-03-03T05:00:00;102458.85;;;-1.35;100.0
22775;BME280;11554;51.106;3.684;2023-03-03T05:05:00;102461.77;;;-1.30;100.0
22775;BME280;11554;51.106;3.684;2023-03-03T05:10:00;102460.69;;;-1.25;100.0
22775;BME280;11554;51.106;3.684;2023-03-03T05:15:00;102455.36;;;-1.13;100.0
22775;BME280;11554;51.106;3.684;2023-03-03T05:20:00;102459.34999999999;;;-1.11;100.0
22775;BME280;11554;51.106;3.684;2023-03-03T05:25:00;102461.6;;;-1.11;100.0
22775;BME280;11554;51.106;3.684;2023-03-03T05:30:00;102460.5;;;-1.04;100.0
22775;BME280;11554;51.106;3.684;2023-03-03T05:35:00;102461.12000000001;;;-1.13;100.0
22775;BME280;11554;51.106;3.684;2023-03-03T05:40:00;102468.3;;;-1.14;100.0
22775;BME280;11554;51.106;3.684;2023-03-03T05:45:00;102474.62000000001;;;-1.19;100.0
22775;BME280;11554;51.106;3.684;2023-03-03T05:50:00;102481.29;;;-1.13;100.0
22775;BME280;11554;51.106;3.684;2023-03-03T05:55:00;102481.43;;;-1.14;100.0
22775;BME280;11554;51.106;3.684;2023-03-03T06:00:00;102488.77;;;-1.04;100.0
22775;BME280;11554;51.106;3.684;2023-03-03T06:05:00;102489.22;;;-0.84;100.0
22775;BME280;11554;51.106;3.684;2023-03-03T06:10:00;102501.95000000001;;;-0.49;100.0
22775;BME280;11554;51.106;3.684;2023-03-03T06:15:00;102502.55;;;-0.12;100.0
22775;BME280;11554;51.106;3.684;2023-03-03T06:20:00;102504.54;;;0.07;100.0
22775;BME280;11554;51.106;3.684;2023-03-03T06:25:00;102515.15;;;0.13;100.0
22775;BME280;11554;51.106;3.684;2023-03-03T06:30:00;102524.37999999999;;;0.15;100.0
22775;BME280;11554;51.106;3.684;2023-03-03T06:35:00;102527.65999999999;;;0.15;100.0
22775;BME280;11554;51.106;3.684;2023-03-03T06:40:00;102535.51;;;0.10;100.0
22775;BME280;11554;51.106;3.684;2023-03-03T06:45:00;102542.76;;;0.07;100.0
22775;BME280;11554;51.106;3.684;2023-03-03T06:50:00;102546.92;;;0.03;100.0
22775;BME280;11554;51.106;3.684;2023-03-03T06:55:01;102552.55;;;0.02;100.0
22775;BME280;11554;51.106;3.684;2023-03-03T07:00:05;102558.81;;;0.01;100.0
22775;BME280;11554;51.106;3.684;2023-03-03T07:05:00;102565.28000000001;;;0.02;100.0
22775;BME280;11554;51.106;3.684;2023-03-03T07:10:00;102574.12;;;0.03;100.0
22775;BME280;11554;51.106;3.684;2023-03-03T07:15:01;102575.79000000001;;;0.02;100.0
22775;BME280;11554;51.106;3.684;2023-03-03T07:20:00;102581.58;;;0.01;100.0
22775;BME280;11554;51.106;3.684;2023-03-03T07:25:00;102583.34999999999;;;0.01;100.0
22775;BME280;11554;51.106;3.684;2023-03-03T07:30:08;102590.48;;;0.05;100.0
22775;BME280;11554;51.106;3.684;2023-03-03T07:35:00;102602.23000000001;;;0.10;100.0
22775;BME280;11554;51.106;3.684;2023-03-03T07:45:00;102600.98000000001;;;0.13;100.0
22775;BME280;11554;51.106;3.684;2023-03-03T07:50:06;102601.01;;;0.23;100.0
22775;BME280;11554;51.106;3.684;2023-03-03T07:55:00;102612.34;;;0.33;100.0
22775;BME280;11554;51.106;3.684;2023-03-03T08:00:00;102616.87999999999;;;0.41;100.0
22775;BME280;11554;51.106;3.684;2023-03-03T08:05:00;102628.15000000001;;;0.54;100.0
22775;BME280;11554;51.106;3.684;2023-03-03T08:10:00;102621.06000000001;;;0.60;100.0
22775;BME280;11554;51.106;3.684;2023-03-03T08:15:10;102630.30000000002;;;0.70;100.0
22775;BME280;11554;51.106;3.684;2023-03-03T08:20:00;102630.92;;;0.79;100.0
22775;BME280;11554;51.106;3.684;2023-03-03T08:25:00;102630.90999999999;;;0.80;100.0
22775;BME280;11554;51.106;3.684;2023-03-03T08:30:00;102638.22;;;0.89;100.0
22775;BME280;11554;51.106;3.684;2023-03-03T08:35:00;102645.35;;;0.95;100.0
22775;BME280;11554;51.106;3.684;2023-03-03T08:40:00;102645.35;;;1.05;100.0
22775;BME280;11554;51.106;3.684;2023-03-03T08:45:00;102643.87;;;1.14;100.0
22775;BME280;11554;51.106;3.684;2023-03-03T08:50:00;102655.30000000002;;;1.28;100.0
22775;BME280;11554;51.106;3.684;2023-03-03T08:55:00;102657.5;;;1.38;100.0
22775;BME280;11554;51.106;3.684;2023-03-03T09:00:00;102666.19;;;1.37;100.0
22775;BME280;11554;51.106;3.684;2023-03-03T09:05:00;102665.72000000002;;;1.40;100.0
22775;BME280;11554;51.106;3.684;2023-03-03T09:10:00;102669.18000000001;;;1.47;100.0
22775;BME280;11554;51.106;3.684;2023-03-03T09:15:05;102667.64;;;1.59;100.0
22775;BME280;11554;51.106;3.684;2023-03-03T09:20:01;102675.9;;;1.69;100.0
22775;BME280;11554;51.106;3.684;2023-03-03T09:25:00;102681.15000000001;;;1.75;100.0
22775;BME280;11554;51.106;3.684;2023-03-03T09:30:00;102678.27;;;1.77;100.0
22775;BME280;11554;51.106;3.684;2023-03-03T09:35:02;102677.09999999999;;;1.86;100.0
22775;BME280;11554;51.106;3.684;2023-03-03T09:40:00;102677.70000000001;;;1.93;100.0
22775;BME280;11554;51.106;3.684;2023-03-03T09:45:04;102685.69;;;2.05;100.0
22775;BME280;11554;51.106;3.684;2023-03-03T09:50:02;102681.26999999999;;;2.17;100.0
22775;BME280;11554;51.106;3.684;2023-03-03T09:55:04;102682.18;;;2.25;100.0
22775;BME280;11554;51.106;3.684;2023-03-03T10:00:04;102687.54;;;2.41;100.0
22775;BME280;11554;51.106;3.684;2023-03-03T10:05:07;102694.23;;;2.46;100.0
22775;BME280;11554;51.106;3.684;2023-03-03T10:10:11;102699.39;;;2.49;100.0
22775;BME280;11554;51.106;3.684;2023-03-03T10:15:06;102703.09999999999;;;2.63;100.0
22775;BME280;11554;51.106;3.684;2023-03-03T10:20:04;102695.26000000001;;;2.73;100.0
22775;BME280;11554;51.106;3.684;2023-03-03T10:25:02;102694.25000000001;;;2.68;100.0
22775;BME280;11554;51.106;3.684;2023-03-03T10:30:02;102696.28;;;2.69;100.0
22775;BME280;11554;51.106;3.684;2023-03-03T10:35:02;102697.89000000001;;;2.80;100.0
22775;BME280;11554;51.106;3.684;2023-03-03T10:40:02;102699.39;;;2.80;100.0
22775;BME280;11554;51.106;3.684;2023-03-03T10:45:04;102696.48;;;2.95;100.0
22775;BME280;11554;51.106;3.684;2023-03-03T10:50:02;102695.61000000002;;;3.09;100.0
22775;BME280;11554;51.106;3.684;2023-03-03T10:55:05;102699.4;;;3.21;100.0
22775;BME280;11554;51.106;3.684;2023-03-03T11:00:02;102693.51999999999;;;3.24;100.0
22775;BME280;11554;51.106;3.684;2023-03-03T11:05:02;102691.42;;;3.35;100.0
22775;BME280;11554;51.106;3.684;2023-03-03T11:10:04;102697.17000000001;;;3.34;100.0
22775;BME280;11554;51.106;3.684;2023-03-03T11:15:06;102688.78;;;3.67;100.0
22775;BME280;11554;51.106;3.684;2023-03-03T11:20:01;102689.47;;;4.09;100.0
22775;BME280;11554;51.106;3.684;2023-03-03T11:25:02;102691.15999999999;;;4.08;100.0
22775;BME280;11554;51.106;3.684;2023-03-03T11:30:02;102700.55;;;4.29;100.0
22775;BME280;11554;51.106;3.684;2023-03-03T11:35:03;102688.56000000001;;;4.27;100.0
22775;BME280;11554;51.106;3.684;2023-03-03T11:40:01;102686.1;;;4.45;100.0
22775;BME280;11554;51.106;3.684;2023-03-03T11:45:01;102686.38;;;4.53;100.0
22775;BME280;11554;51.106;3.684;2023-03-03T11:50:01;102680.88;;;4.86;100.0
22775;BME280;11554;51.106;3.684;2023-03-03T11:55:01;102678.44;;;5.06;100.0
22775;BME280;11554;51.106;3.684;2023-03-03T12:00:02;102677.37999999999;;;4.96;100.0
22775;BME280;11554;51.106;3.684;2023-03-03T12:05:03;102675.11;;;4.94;100.0
22775;BME280;11554;51.106;3.684;2023-03-03T12:10:03;102672.28;;;5.11;100.0
22775;BME280;11554;51.106;3.684;2023-03-03T12:15:03;102669.74;;;5.09;100.0
22775;BME280;11554;51.106;3.684;2023-03-03T12:20:02;102654.37;;;5.91;100.0
22775;BME280;11554;51.106;3.684;2023-03-03T12:25:04;102648.20999999999;;;6.34;97.94
22775;BME280;11554;51.106;3.684;2023-03-03T12:30:02;102644.63;;;6.02;98.61
22775;BME280;11554;51.106;3.684;2023-03-03T12:35:01;102642.32999999999;;;6.54;97.73
22775;BME280;11554;51.106;3.684;2023-03-03T12:40:02;102644.86;;;6.74;95.36
22775;BME280;11554;51.106;3.684;2023-03-03T12:45:03;102634.41;;;7.10;92.94
22775;BME280;11554;51.106;3.684;2023-03-03T12:50:09;102643.18000000001;;;7.34;91.36
22775;BME280;11554;51.106;3.684;2023-03-03T12:55:02;102639.16999999998;;;7.25;91.91
22775;BME280;11554;51.106;3.684;2023-03-03T13:00:03;102640.83;;;7.65;91.91
22775;BME280;11554;51.106;3.684;2023-03-03T13:05:01;102636.51;;;7.76;89.42
22775;BME280;11554;51.106;3.684;2023-03-03T13:10:02;102633.18;;;7.92;89.08
22775;BME280;11554;51.106;3.684;2023-03-03T13:15:02;102631.37999999999;;;7.92;88.17
22775;BME280;11554;51.106;3.684;2023-03-03T13:20:00;102625.32;;;7.72;87.86
22775;BME280;11554;51.106;3.684;2023-03-03T13:25:02;102624.06000000001;;;8.38;86.8
22775;BME280;11554;51.106;3.684;2023-03-03T13:30:01;102625.73999999999;;;8.05;86.08
22775;BME280;11554;51.106;3.684;2023-03-03T13:35:01;102622.2;;;7.83;87.42
22775;BME280;11554;51.106;3.684;2023-03-03T13:40:00;102622.61000000002;;;8.13;85.16
22775;BME280;11554;51.106;3.684;2023-03-03T13:45:00;102615.20000000001;;;7.57;85.41
22775;BME280;11554;51.106;3.684;2023-03-03T13:50:08;102616.35;;;7.95;87.18
22775;BME280;11554;51.106;3.684;2023-03-03T13:55:07;102612.43;;;8.23;85.27
22775;BME280;11554;51.106;3.684;2023-03-03T14:00:03;102612.68;;;8.31;84.97
22775;BME280;11554;51.106;3.684;2023-03-03T14:05:01;102615.49;;;8.56;84.2
22775;BME280;11554;51.106;3.684;2023-03-03T14:10:01;102613.02;;;7.97;84.64
22775;BME280;11554;51.106;3.684;2023-03-03T14:15:02;102605.46999999999;;;8.39;84.09
22775;BME280;11554;51.106;3.684;2023-03-03T14:20:02;102604.26999999999;;;8.62;82.31
22775;BME280;11554;51.106;3.684;2023-03-03T14:25:02;102607.63999999998;;;8.36;82.4
22775;BME280;11554;51.106;3.684;2023-03-03T14:35:00;102602.59000000001;;;8.24;84.83
22775;BME280;11554;51.106;3.684;2023-03-03T14:40:17;102596.59;;;8.74;82.92
22775;BME280;11554;51.106;3.684;2023-03-03T14:45:00;102595.28;;;8.27;82.63
22775;BME280;11554;51.106;3.684;2023-03-03T14:50:00;102595.84;;;8.16;83.73
22775;BME280;11554;51.106;3.684;2023-03-03T14:55:00;102586.11000000002;;;8.17;82.55
22775;BME280;11554;51.106;3.684;2023-03-03T15:00:01;102589.27;;;8.16;84.24
22775;BME280;11554;51.106;3.684;2023-03-03T15:05:12;102589.58;;;8.68;82.07
22775;BME280;11554;51.106;3.684;2023-03-03T15:10:00;102586.68000000001;;;8.62;80.78
22775;BME280;11554;51.106;3.684;2023-03-03T15:15:03;102583.26;;;7.50;83.64
22775;BME280;11554;51.106;3.684;2023-03-03T15:20:03;102583.81;;;7.45;85.29
22775;BME280;11554;51.106;3.684;2023-03-03T15:25:01;102571.19;;;7.63;86.0
22775;BME280;11554;51.106;3.684;2023-03-03T15:30:02;102578.82999999999;;;7.68;83.47
22775;BME280;11554;51.106;3.684;2023-03-03T15:35:02;102580.13;;;7.35;83.83
22775;BME280;11554;51.106;3.684;2023-03-03T15:40:02;102575.55;;;7.44;84.13
22775;BME280;11554;51.106;3.684;2023-03-03T15:45:02;102572.61000000002;;;7.81;84.69
22775;BME280;11554;51.106;3.684;2023-03-03T15:50:08;102570.53000000001;;;8.14;82.87
22775;BME280;11554;51.106;3.684;2023-03-03T15:55:05;102573.1;;;7.72;82.21
22775;BME280;11554;51.106;3.684;2023-03-03T16:05:01;102564.43;;;7.63;83.31
22775;BME280;11554;51.106;3.684;2023-03-03T16:10:02;102562.01000000001;;;7.91;83.4
22775;BME280;11554;51.106;3.684;2023-03-03T16:15:05;102563.71999999999;;;7.85;82.78
22775;BME280;11554;51.106;3.684;2023-03-03T16:20:02;102562.01000000001;;;7.66;83.46
22775;BME280;11554;51.106;3.684;2023-03-03T16:25:05;102559.61;;;7.43;84.19
22775;BME280;11554;51.106;3.684;2023-03-03T16:30:02;102553.63;;;7.18;84.98
22775;BME280;11554;51.106;3.684;2023-03-03T16:35:04;102565.05;;;6.96;85.96
22775;BME280;11554;51.106;3.684;2023-03-03T16:40:02;102567.92;;;6.98;87.72
22775;BME280;11554;51.106;3.684;2023-03-03T16:45:04;102571.57999999999;;;7.01;89.23
22775;BME280;11554;51.106;3.684;2023-03-03T16:50:05;102574.34000000001;;;6.86;90.35
22775;BME280;11554;51.106;3.684;2023-03-03T16:55:02;102580.0;;;6.79;91.1
22775;BME280;11554;51.106;3.684;2023-03-03T17:00:03;102589.72000000002;;;6.72;91.91
22775;BME280;11554;51.106;3.684;2023-03-03T17:05:01;102589.92000000001;;;6.66;92.36
22775;BME280;11554;51.106;3.684;2023-03-03T17:10:05;102594.43000000001;;;6.51;92.14
22775;BME280;11554;51.106;3.684;2023-03-03T17:15:04;102598.13999999998;;;6.36;91.88
22775;BME280;11554;51.106;3.684;2023-03-03T17:20:02;102601.48999999999;;;6.26;92.22
22775;BME280;11554;51.106;3.684;2023-03-03T17:25:02;102606.30000000002;;;6.16;92.83
22775;BME280;11554;51.106;3.684;2023-03-03T17:30:02;102610.35999999999;;;6.11;93.16
22775;BME280;11554;51.106;3.684;2023-03-03T17:35:06;102619.3;;;6.05;93.43
22775;BME280;11554;51.106;3.684;2023-03-03T17:40:02;102623.67;;;5.97;93.56
22775;BME280;11554;51.106;3.684;2023-03-03T17:45:02;102623.34000000001;;;5.90;93.67
22775;BME280;11554;51.106;3.684;2023-03-03T17:50:02;102629.98;;;5.84;93.29
22775;BME280;11554;51.106;3.684;2023-03-03T17:55:08;102633.52;;;5.79;93.83
22775;BME280;11554;51.106;3.684;2023-03-03T18:00:02;102644.09000000001;;;5.74;93.81
22775;BME280;11554;51.106;3.684;2023-03-03T18:10:05;102654.81;;;5.61;93.78
22775;BME280;11554;51.106;3.684;2023-03-03T18:15:10;102659.56000000001;;;5.55;94.21
22775;BME280;11554;51.106;3.684;2023-03-03T18:25:00;102670.87;;;5.39;93.27
22775;BME280;11554;51.106;3.684;2023-03-03T18:50:00;102684.25;;;5.10;92.42
22775;BME280;11554;51.106;3.684;2023-03-03T19:00:08;102689.95;;;5.00;91.89
22775;BME280;11554;51.106;3.684;2023-03-03T19:05:05;102688.66;;;4.91;92.22
22775;BME280;11554;51.106;3.684;2023-03-03T19:10:00;102688.22;;;4.86;91.99
22775;BME280;11554;51.106;3.684;2023-03-03T19:15:00;102687.5;;;4.82;92.06
22775;BME280;11554;51.106;3.684;2023-03-03T19:20:00;102695.81000000001;;;4.80;92.01
22775;BME280;11554;51.106;3.684;2023-03-03T19:25:01;102697.93999999999;;;4.75;92.33
22775;BME280;11554;51.106;3.684;2023-03-03T19:35:03;102703.02999999998;;;4.66;92.03
22775;BME280;11554;51.106;3.684;2023-03-03T19:40:00;102701.79000000001;;;4.60;92.43
22775;BME280;11554;51.106;3.684;2023-03-03T19:45:03;102701.42000000001;;;4.56;92.62
22775;BME280;11554;51.106;3.684;2023-03-03T19:50:04;102709.99999999999;;;4.54;93.07
22775;BME280;11554;51.106;3.684;2023-03-03T19:55:03;102708.53;;;4.49;93.56
22775;BME280;11554;51.106;3.684;2023-03-03T20:00:02;102710.01000000001;;;4.46;93.65
22775;BME280;11554;51.106;3.684;2023-03-03T20:05:02;102711.68000000001;;;4.43;93.91
22775;BME280;11554;51.106;3.684;2023-03-03T20:10:03;102714.92000000001;;;4.41;94.17
22775;BME280;11554;51.106;3.684;2023-03-03T20:15:02;102717.19;;;4.39;94.36
22775;BME280;11554;51.106;3.684;2023-03-03T20:20:01;102718.65000000001;;;4.38;94.46
22775;BME280;11554;51.106;3.684;2023-03-03T20:25:03;102723.31999999999;;;4.37;94.38
22775;BME280;11554;51.106;3.684;2023-03-03T20:35:02;102728.81;;;4.33;94.54
22775;BME280;11554;51.106;3.684;2023-03-03T20:40:02;102724.18000000001;;;4.32;94.58
22775;BME280;11554;51.106;3.684;2023-03-03T20:45:04;102725.18;;;4.29;94.83
22775;BME280;11554;51.106;3.684;2023-03-03T20:50:03;102730.82999999999;;;4.31;94.33
22775;BME280;11554;51.106;3.684;2023-03-03T20:55:02;102731.42;;;4.31;93.97
22775;BME280;11554;51.106;3.684;2023-03-03T21:00:02;102740.51999999999;;;4.32;93.74
22775;BME280;11554;51.106;3.684;2023-03-03T21:05:07;102742.54000000001;;;4.29;94.1
22775;BME280;11554;51.106;3.684;2023-03-03T21:10:08;102742.68;;;4.26;94.61
22775;BME280;11554;51.106;3.684;2023-03-03T21:15:00;102743.42;;;4.23;95.08
22775;BME280;11554;51.106;3.684;2023-03-03T21:25:00;102747.84;;;4.18;95.55
22775;BME280;11554;51.106;3.684;2023-03-03T21:30:01;102749.12;;;4.16;95.66
22775;BME280;11554;51.106;3.684;2023-03-03T21:35:03;102748.79000000001;;;4.13;95.75
22775;BME280;11554;51.106;3.684;2023-03-03T21:40:10;102744.47;;;4.12;95.86
22775;BME280;11554;51.106;3.684;2023-03-03T21:45:07;102745.89000000001;;;4.11;96.1
22775;BME280;11554;51.106;3.684;2023-03-03T21:50:00;102749.31999999999;;;4.14;96.34
22775;BME280;11554;51.106;3.684;2023-03-03T21:55:00;102752.29;;;4.14;96.46
22775;BME280;11554;51.106;3.684;2023-03-03T22:00:00;102755.64;;;4.14;96.66
22775;BME280;11554;51.106;3.684;2023-03-03T22:05:00;102753.01999999999;;;4.12;96.98
22775;BME280;11554;51.106;3.684;2023-03-03T22:10:00;102751.62;;;4.13;97.49
22775;BME280;11554;51.106;3.684;2023-03-03T22:15:00;102747.72;;;4.11;97.7
22775;BME280;11554;51.106;3.684;2023-03-03T22:20:00;102752.72;;;4.09;97.86
22775;BME280;11554;51.106;3.684;2023-03-03T22:25:00;102755.40000000001;;;4.10;98.38
22775;BME280;11554;51.106;3.684;2023-03-03T22:30:00;102749.68;;;4.08;98.7
22775;BME280;11554;51.106;3.684;2023-03-03T22:35:00;102748.55;;;4.15;98.92
22775;BME280;11554;51.106;3.684;2023-03-03T22:40:00;102742.93000000001;;;4.23;97.53
22775;BME280;11554;51.106;3.684;2023-03-03T22:45:00;102744.84999999999;;;4.31;96.38
22775;BME280;11554;51.106;3.684;2023-03-03T22:50:00;102746.4;;;4.33;95.91
22775;BME280;11554;51.106;3.684;2023-03-03T22:55:00;102743.57;;;4.41;95.48
22775;BME280;11554;51.106;3.684;2023-03-03T23:00:00;102746.01;;;4.43;95.37
22775;BME280;11554;51.106;3.684;2023-03-03T23:05:00;102746.31;;;4.34;96.34
22775;BME280;11554;51.106;3.684;2023-03-03T23:10:00;102744.63;;;4.30;97.06
22775;BME280;11554;51.106;3.684;2023-03-03T23:15:00;102741.51999999999;;;4.26;97.56
22775;BME280;11554;51.106;3.684;2023-03-03T23:20:00;102741.00000000001;;;4.23;97.68
22775;BME280;11554;51.106;3.684;2023-03-03T23:25:00;102741.88999999998;;;4.21;98.41
22775;BME280;11554;51.106;3.684;2023-03-03T23:30:00;102733.97;;;4.19;98.94
22775;BME280;11554;51.106;3.684;2023-03-03T23:35:00;102741.64000000001;;;4.30;97.57
22775;BME280;11554;51.106;3.684;2023-03-03T23:40:00;102732.86;;;4.35;97.01
22775;BME280;11554;51.106;3.684;2023-03-03T23:45:00;102737.28000000001;;;4.35;96.91
22775;BME280;11554;51.106;3.684;2023-03-03T23:50:00;102732.70999999999;;;4.31;96.76
22775;BME280;11554;51.106;3.684;2023-03-03T23:55:00;102742.03;;;4.27;97.31
